Time;durP1;ratioP1;P1;durP2;ratioP2;P2;SDS_P1;SDS_P2;PMS_P1;PMS_P2;Temp;Humidity;BMP_temperature;BMP_pressure;BME280_temperature;BME280_humidity;BME280_pressure;Samples;Min_cycle;Max_cycle;Signal;HPM_P1;HPM_P2
2024/04/20 00:00:58;;;;;;;8.40;6.30;;;;;;;7.17;72.28;99129.44;111249;1252;23673;-67
2024/04/20 00:03:50;;;;;;;8.90;6.00;;;;;;;7.16;72.22;99129.52;111531;1252;21950;-66
2024/04/20 00:06:19;;;;;;;6.30;5.40;;;;;;;7.12;72.24;99127.56;111403;1252;21942;-67
2024/04/20 00:08:48;;;;;;;7.30;5.90;;;;;;;7.10;72.70;99127.91;111274;1252;21949;-67
2024/04/20 00:11:19;;;;;;;6.30;5.50;;;;;;;7.10;72.59;99127.58;111568;1252;21949;-67
2024/04/20 00:13:51;;;;;;;7.50;6.30;;;;;;;7.07;73.02;99126.23;111507;1252;21953;-67
2024/04/20 00:16:19;;;;;;;8.00;6.60;;;;;;;7.06;72.91;99125.27;111537;1252;21938;-69
2024/04/20 00:18:48;;;;;;;8.30;7.30;;;;;;;7.04;73.09;99128.52;111543;1252;21966;-67
2024/04/20 00:21:17;;;;;;;7.00;6.10;;;;;;;7.03;73.27;99129.45;111232;1252;21954;-69
2024/04/20 00:23:45;;;;;;;6.80;5.90;;;;;;;7.00;73.29;99130.20;111553;1252;21948;-67
2024/04/20 00:26:14;;;;;;;5.80;5.20;;;;;;;7.02;73.31;99126.44;111554;1252;21950;-67
2024/04/20 00:28:43;;;;;;;7.10;6.40;;;;;;;7.04;73.33;99124.89;111233;1252;23379;-67
2024/04/20 00:31:12;;;;;;;8.00;6.60;;;;;;;7.03;73.51;99125.84;111350;1252;21974;-67
2024/04/20 00:33:41;;;;;;;8.70;7.90;;;;;;;7.04;73.49;99129.07;111039;1252;21958;-67
2024/04/20 00:36:10;;;;;;;10.60;8.90;;;;;;;7.06;73.31;99131.36;111561;1252;21948;-69
2024/04/20 00:38:38;;;;;;;8.20;7.40;;;;;;;7.06;73.07;99132.75;111511;1252;24292;-68
2024/04/20 00:41:07;;;;;;;11.70;8.40;;;;;;;7.03;73.47;99131.38;111529;1252;21955;-68
2024/04/20 00:43:36;;;;;;;9.80;8.70;;;;;;;7.06;73.52;99132.41;111534;1252;21959;-68
2024/04/20 00:46:06;;;;;;;12.60;9.60;;;;;;;7.10;73.46;99133.33;111530;1252;21955;-68
2024/04/20 00:48:35;;;;;;;11.60;10.30;;;;;;;7.08;73.46;99134.20;111363;1252;21968;-67
2024/04/20 00:51:05;;;;;;;11.10;9.20;;;;;;;7.05;73.60;99132.45;111339;1252;22762;-69
2024/04/20 00:53:35;;;;;;;10.40;9.40;;;;;;;7.06;73.60;99134.67;111439;1252;213054;-68
2024/04/20 00:56:04;;;;;;;10.90;9.30;;;;;;;7.09;73.80;99137.13;111504;1252;21953;-67
2024/04/20 00:58:34;;;;;;;12.00;10.80;;;;;;;7.12;73.57;99143.31;111468;1252;21961;-67
2024/04/20 01:01:04;;;;;;;9.90;8.80;;;;;;;7.15;73.80;99142.92;111241;1252;21939;-67
2024/04/20 01:03:33;;;;;;;9.20;7.10;;;;;;;7.16;73.51;99147.08;111593;1252;21951;-66
2024/04/20 01:06:03;;;;;;;8.20;7.20;;;;;;;7.17;73.60;99148.05;111269;1252;21964;-66
2024/04/20 01:08:33;;;;;;;8.40;7.60;;;;;;;7.19;73.54;99146.29;111320;1245;21961;-69
2024/04/20 01:11:03;;;;;;;7.60;6.80;;;;;;;7.21;73.25;99149.48;111232;1252;21960;-68
2024/04/20 01:13:32;;;;;;;7.20;6.50;;;;;;;7.17;73.12;99147.52;110951;1252;21949;-67
2024/04/20 01:16:01;;;;;;;7.40;6.60;;;;;;;7.10;73.08;99144.39;110960;1252;21963;-67
2024/04/20 01:18:30;;;;;;;7.10;6.30;;;;;;;7.05;73.29;99142.64;111292;1252;22710;-67
2024/04/20 01:20:59;;;;;;;8.40;7.40;;;;;;;7.04;73.51;99144.12;111528;1252;21963;-68
2024/04/20 01:23:28;;;;;;;8.20;7.50;;;;;;;7.05;73.66;99145.65;111504;1252;21961;-67
2024/04/20 01:25:57;;;;;;;7.60;6.90;;;;;;;7.09;73.57;99150.55;111561;1252;21962;-67
2024/04/20 01:28:26;;;;;;;8.50;7.60;;;;;;;7.14;73.50;99153.54;111539;1252;21938;-67
2024/04/20 01:30:54;;;;;;;9.00;8.20;;;;;;;7.17;73.55;99154.48;110956;1253;23608;-67
2024/04/20 01:33:23;;;;;;;9.90;9.00;;;;;;;7.20;73.45;99153.21;111418;1252;21958;-67
2024/04/20 01:35:52;;;;;;;10.70;9.70;;;;;;;7.22;73.22;99153.44;111343;1252;22040;-68
2024/04/20 01:38:21;;;;;;;8.40;7.60;;;;;;;7.21;73.08;99156.64;111530;1252;22162;-68
2024/04/20 01:40:50;;;;;;;9.90;8.80;;;;;;;7.15;73.27;99158.15;111492;1252;21955;-67
2024/04/20 01:43:18;;;;;;;10.00;8.40;;;;;;;7.14;73.70;99162.13;111486;1252;23022;-67
2024/04/20 01:45:47;;;;;;;8.60;7.60;;;;;;;7.16;73.44;99163.18;111513;1252;21950;-68
2024/04/20 01:48:16;;;;;;;7.90;7.20;;;;;;;7.17;73.56;99162.40;111554;1252;23601;-67
2024/04/20 01:50:45;;;;;;;8.70;7.00;;;;;;;7.18;73.35;99165.67;111548;1253;23579;-68
2024/04/20 01:53:14;;;;;;;7.60;6.90;;;;;;;7.20;73.65;99165.16;111531;1247;21964;-69
2024/04/20 01:55:42;;;;;;;8.20;7.40;;;;;;;7.23;73.77;99165.26;111546;1252;21976;-69
2024/04/20 01:58:11;;;;;;;8.40;7.60;;;;;;;7.23;73.36;99164.58;111520;1252;21949;-69
2024/04/20 02:00:41;;;;;;;9.40;8.50;;;;;;;7.19;73.58;99168.35;111546;1253;21964;-67
2024/04/20 02:03:11;;;;;;;7.90;7.10;;;;;;;7.20;73.53;99173.01;111253;1252;21994;-68
2024/04/20 02:05:41;;;;;;;8.70;7.50;;;;;;;7.20;73.43;99173.70;111549;1252;21982;-69
2024/04/20 02:08:09;;;;;;;8.60;7.80;;;;;;;7.17;73.55;99177.46;111235;1252;24086;-67
2024/04/20 02:10:38;;;;;;;9.30;8.40;;;;;;;7.18;73.45;99178.80;111216;1252;23602;-67
2024/04/20 02:13:07;;;;;;;8.50;7.70;;;;;;;7.19;73.48;99183.77;111323;1252;23690;-67
2024/04/20 02:15:36;;;;;;;7.60;6.90;;;;;;;7.16;73.46;99186.63;111262;1252;21997;-67
2024/04/20 02:18:05;;;;;;;7.80;7.00;;;;;;;7.13;73.64;99189.10;111284;1253;23602;-67
2024/04/20 02:20:34;;;;;;;9.00;8.00;;;;;;;7.14;73.64;99189.20;111288;1252;21985;-67
2024/04/20 02:23:03;;;;;;;8.40;7.60;;;;;;;7.13;73.76;99193.46;111023;1252;22037;-67
2024/04/20 02:25:32;;;;;;;7.90;7.00;;;;;;;7.14;73.73;99193.59;111335;1252;21955;-67
2024/04/20 02:28:01;;;;;;;8.50;7.50;;;;;;;7.15;73.60;99192.68;111309;1253;21951;-67
2024/04/20 02:30:30;;;;;;;9.10;7.00;;;;;;;7.12;73.71;99192.39;111266;1252;21937;-67
2024/04/20 02:32:59;;;;;;;8.40;6.70;;;;;;;7.11;73.67;99194.86;111515;1253;23624;-67
2024/04/20 02:35:28;;;;;;;7.30;6.60;;;;;;;7.12;73.67;99194.47;111289;1252;21987;-67
2024/04/20 02:37:57;;;;;;;8.40;7.60;;;;;;;7.12;73.74;99193.19;111339;1252;21988;-68
2024/04/20 02:40:26;;;;;;;7.80;7.00;;;;;;;7.14;73.75;99194.33;111344;1253;21953;-67
2024/04/20 02:42:55;;;;;;;7.20;6.50;;;;;;;7.12;73.83;99199.52;111564;1252;22034;-69
2024/04/20 02:45:25;;;;;;;7.90;7.20;;;;;;;7.10;73.69;99199.30;111185;1253;21959;-72
2024/04/20 02:47:53;;;;;;;8.30;7.50;;;;;;;7.09;73.70;99198.19;111260;1252;24753;-70
2024/04/20 02:50:22;;;;;;;7.30;6.70;;;;;;;7.06;73.67;99201.86;111476;1252;22731;-69
2024/04/20 02:52:51;;;;;;;10.00;8.30;;;;;;;7.04;73.96;99204.15;111281;1253;21969;-66
2024/04/20 02:55:20;;;;;;;9.00;8.20;;;;;;;7.01;73.53;99205.79;111540;1252;21964;-67
2024/04/20 02:57:49;;;;;;;9.70;8.70;;;;;;;6.98;73.56;99205.29;111491;1252;21958;-67
2024/04/20 03:00:18;;;;;;;10.00;9.00;;;;;;;6.96;73.77;99207.67;111235;1252;23686;-68
2024/04/20 03:02:47;;;;;;;10.70;9.60;;;;;;;6.94;73.97;99209.72;111386;1253;21964;-67
2024/04/20 03:05:16;;;;;;;10.70;9.70;;;;;;;6.96;74.05;99211.02;111064;1245;22177;-68
2024/04/20 03:07:45;;;;;;;12.10;11.10;;;;;;;6.99;73.87;99212.55;111595;1252;21969;-68
2024/04/20 03:10:13;;;;;;;13.40;12.00;;;;;;;7.01;74.16;99214.35;111520;1252;21962;-67
2024/04/20 03:12:42;;;;;;;13.50;12.30;;;;;;;7.05;73.97;99217.52;111224;1252;22821;-67
2024/04/20 03:15:11;;;;;;;13.90;12.70;;;;;;;7.11;74.14;99216.40;111261;1252;21953;-69
2024/04/20 03:17:39;;;;;;;14.10;12.70;;;;;;;7.15;73.97;99220.83;111546;1252;22018;-68
2024/04/20 03:20:09;;;;;;;14.50;13.30;;;;;;;7.16;73.52;99225.48;111570;1252;21955;-66
2024/04/20 03:22:37;;;;;;;14.80;13.40;;;;;;;7.14;73.60;99227.58;111508;1252;21954;-67
2024/04/20 03:25:06;;;;;;;14.30;12.90;;;;;;;7.10;73.61;99227.13;111499;1252;23029;-68
2024/04/20 03:27:35;;;;;;;14.10;12.70;;;;;;;7.07;73.75;99225.45;111499;1253;22745;-67
2024/04/20 03:30:05;;;;;;;11.90;10.80;;;;;;;7.07;74.07;99226.16;111584;1252;22004;-67
2024/04/20 03:32:34;;;;;;;11.00;9.90;;;;;;;7.06;73.85;99227.47;111250;1252;21952;-67
2024/04/20 03:35:04;;;;;;;11.40;10.40;;;;;;;7.02;73.93;99234.19;111588;1253;22415;-67
2024/04/20 03:37:33;;;;;;;12.30;11.20;;;;;;;7.00;74.00;99238.20;111234;1252;23663;-68
2024/04/20 03:40:02;;;;;;;12.50;11.40;;;;;;;7.00;73.70;99238.92;111395;1253;22035;-68
2024/04/20 03:42:31;;;;;;;11.60;10.60;;;;;;;6.99;73.69;99243.36;111250;1252;23029;-67
2024/04/20 03:45:00;;;;;;;13.40;12.10;;;;;;;6.99;74.04;99248.75;111233;1252;22027;-67
2024/04/20 03:47:29;;;;;;;13.00;11.90;;;;;;;7.03;74.08;99251.11;111408;1252;21939;-67
2024/04/20 03:49:58;;;;;;;13.50;11.50;;;;;;;7.06;74.13;99252.70;111532;1252;21952;-67
2024/04/20 03:52:26;;;;;;;12.00;11.00;;;;;;;7.08;74.01;99254.29;111236;1252;23018;-67
2024/04/20 03:54:55;;;;;;;11.30;10.30;;;;;;;7.05;73.92;99259.72;111560;1252;21960;-68
2024/04/20 03:57:28;;;;;;;12.90;11.20;;;;;;;7.03;73.94;99262.29;111534;1252;21950;-67
2024/04/20 03:59:57;;;;;;;12.20;11.10;;;;;;;7.03;74.14;99262.33;111008;1252;21959;-66
2024/04/20 04:02:27;;;;;;;11.50;10.30;;;;;;;7.04;74.19;99263.28;111314;1252;21940;-68
2024/04/20 04:04:56;;;;;;;11.80;10.80;;;;;;;7.07;74.02;99269.58;111291;1252;23041;-68
2024/04/20 04:07:25;;;;;;;12.00;10.80;;;;;;;7.07;74.00;99273.59;111307;1253;21961;-69
2024/04/20 04:09:54;;;;;;;11.70;10.30;;;;;;;7.09;74.48;99277.33;111567;1252;22048;-67
2024/04/20 04:12:23;;;;;;;12.00;10.80;;;;;;;7.13;74.53;99277.55;111223;1253;21961;-67
2024/04/20 04:14:52;;;;;;;11.70;10.60;;;;;;;7.17;74.36;99281.45;111053;1252;24096;-68
2024/04/20 04:17:20;;;;;;;12.70;11.20;;;;;;;7.19;74.16;99284.95;111219;1252;23086;-67
2024/04/20 04:19:50;;;;;;;11.50;10.40;;;;;;;7.18;74.10;99288.33;111260;1252;24096;-68
2024/04/20 04:22:18;;;;;;;12.20;11.10;;;;;;;7.19;74.17;99291.10;111569;1253;21952;-68
2024/04/20 04:24:47;;;;;;;12.60;11.50;;;;;;;7.22;74.11;99298.17;111540;1252;21954;-67
2024/04/20 04:27:16;;;;;;;12.40;10.50;;;;;;;7.23;74.01;99299.70;111533;1252;21963;-67
2024/04/20 04:29:45;;;;;;;12.20;11.00;;;;;;;7.22;74.04;99302.02;111197;1253;21921;-67
2024/04/20 04:32:14;;;;;;;11.90;10.80;;;;;;;7.23;73.80;99308.09;111583;1252;22251;-66
2024/04/20 04:34:43;;;;;;;12.10;11.00;;;;;;;7.23;73.70;99310.94;111287;1252;21951;-67
2024/04/20 04:37:12;;;;;;;11.30;9.70;;;;;;;7.23;73.98;99313.90;111264;1253;21961;-68
2024/04/20 04:39:41;;;;;;;11.00;10.00;;;;;;;7.26;73.90;99320.69;111649;1253;21961;-68
2024/04/20 04:42:10;;;;;;;10.40;9.40;;;;;;;7.27;73.60;99320.27;111531;1252;23057;-69
2024/04/20 04:44:39;;;;;;;11.60;10.10;;;;;;;7.25;73.61;99325.33;111504;1252;21956;-67
2024/04/20 04:47:08;;;;;;;11.20;10.10;;;;;;;7.26;73.48;99324.73;111534;1250;21957;-68
2024/04/20 04:49:37;;;;;;;12.80;11.70;;;;;;;7.28;73.66;99326.14;111229;1252;22417;-69
2024/04/20 04:52:05;;;;;;;11.70;10.60;;;;;;;7.33;73.80;99327.39;111603;1252;21954;-68
2024/04/20 04:54:34;;;;;;;12.70;11.50;;;;;;;7.40;73.74;99327.66;111529;1252;22914;-68
2024/04/20 04:57:03;;;;;;;12.20;10.90;;;;;;;7.52;73.55;99328.42;111499;1253;22049;-68
2024/04/20 04:59:32;;;;;;;13.10;11.80;;;;;;;7.61;73.28;99326.48;111468;1252;22252;-69
2024/04/20 05:02:01;;;;;;;13.50;12.10;;;;;;;7.70;73.12;99328.61;111448;1253;22672;-67
2024/04/20 05:04:30;;;;;;;12.00;10.90;;;;;;;7.77;72.95;99328.64;111502;1252;21955;-68
2024/04/20 05:07:00;;;;;;;12.80;11.60;;;;;;;7.81;72.59;99335.03;111474;1252;21950;-67
2024/04/20 05:09:28;;;;;;;13.10;12.00;;;;;;;7.83;72.55;99338.86;111508;1252;21954;-68
2024/04/20 05:11:57;;;;;;;11.80;10.60;;;;;;;7.87;72.56;99339.77;111516;1253;21952;-68
2024/04/20 05:14:27;;;;;;;11.70;10.70;;;;;;;7.93;72.36;99344.44;111520;1252;22421;-69
2024/04/20 05:16:55;;;;;;;12.30;11.00;;;;;;;7.97;72.10;99343.81;111523;1252;23570;-69
2024/04/20 05:19:24;;;;;;;12.90;11.70;;;;;;;7.97;71.91;99349.95;111535;1253;24295;-68
2024/04/20 05:21:53;;;;;;;12.20;11.10;;;;;;;7.95;72.12;99351.65;111520;1253;22047;-68
2024/04/20 05:24:24;;;;;;;13.40;12.00;;;;;;;8.00;72.24;99354.27;111509;1252;21956;-68
2024/04/20 05:26:53;;;;;;;13.50;12.30;;;;;;;8.04;72.08;99361.13;111429;1252;21954;-68
2024/04/20 05:29:22;;;;;;;13.20;11.90;;;;;;;8.10;72.12;99365.09;111304;1253;22080;-67
2024/04/20 05:31:51;;;;;;;13.90;12.60;;;;;;;8.16;72.00;99373.52;110975;1252;24096;-67
2024/04/20 05:34:20;;;;;;;15.60;14.20;;;;;;;8.24;71.77;99377.65;111420;1253;21982;-66
2024/04/20 05:36:49;;;;;;;15.50;14.00;;;;;;;8.32;71.88;99379.84;110994;1253;21970;-66
2024/04/20 05:39:18;;;;;;;14.70;13.30;;;;;;;8.39;71.48;99380.60;111303;1252;21965;-69
2024/04/20 05:41:47;;;;;;;14.10;12.80;;;;;;;8.40;71.16;99383.66;111498;1253;21963;-69
2024/04/20 05:44:17;;;;;;;15.00;13.50;;;;;;;8.38;70.97;99385.77;111307;1253;21939;-68
2024/04/20 05:46:45;;;;;;;17.70;13.60;;;;;;;8.34;71.09;99389.55;111318;1246;22721;-69
2024/04/20 05:49:14;;;;;;;16.10;14.50;;;;;;;8.36;71.36;99392.39;111519;1252;21985;-68
2024/04/20 05:51:43;;;;;;;15.50;14.20;;;;;;;8.37;70.95;99392.98;111521;1252;23467;-68
2024/04/20 05:54:12;;;;;;;16.00;14.50;;;;;;;8.36;70.95;99394.29;111524;1252;21964;-68
2024/04/20 05:56:41;;;;;;;16.60;14.50;;;;;;;8.40;71.06;99398.08;111290;1252;21918;-69
2024/04/20 05:59:09;;;;;;;15.50;14.10;;;;;;;8.44;70.96;99400.06;111072;1252;22454;-68
2024/04/20 06:01:38;;;;;;;14.10;12.80;;;;;;;8.49;70.84;99403.67;111592;1253;21957;-68
2024/04/20 06:04:07;;;;;;;14.40;13.10;;;;;;;8.50;70.71;99406.27;111521;1252;21938;-69
2024/04/20 06:06:36;;;;;;;14.90;13.50;;;;;;;8.56;70.98;99407.59;111527;1252;22018;-68
2024/04/20 06:09:08;;;;;;;16.60;14.90;;;;;;;8.69;71.06;99405.98;111520;1252;22913;-67
2024/04/20 06:11:37;;;;;;;15.90;14.30;;;;;;;8.85;70.34;99409.98;111265;1252;22137;-68
2024/04/20 06:14:06;;;;;;;14.90;13.70;;;;;;;9.01;69.91;99410.88;111261;1252;21962;-68
2024/04/20 06:16:35;;;;;;;13.60;12.50;;;;;;;9.22;69.82;99411.17;111532;1252;21955;-67
2024/04/20 06:19:03;;;;;;;15.90;14.50;;;;;;;9.59;69.50;99414.20;111531;1252;21961;-65
2024/04/20 06:21:33;;;;;;;14.40;12.60;;;;;;;9.85;68.42;99417.00;111308;1252;25029;-67
2024/04/20 06:24:03;;;;;;;14.20;13.00;;;;;;;9.96;67.41;99420.23;111046;1252;23690;-70
2024/04/20 06:26:32;;;;;;;15.10;13.80;;;;;;;10.01;66.85;99422.34;111300;1252;22771;-68
2024/04/20 06:29:00;;;;;;;14.80;13.60;;;;;;;10.07;66.66;99422.75;111236;1253;23621;-69
2024/04/20 06:31:29;;;;;;;13.10;12.00;;;;;;;10.16;66.13;99421.08;111547;1252;22412;-69
2024/04/20 06:33:58;;;;;;;13.10;12.00;;;;;;;10.30;65.68;99421.84;111486;1253;23729;-67
2024/04/20 06:36:27;;;;;;;13.50;12.40;;;;;;;10.51;65.21;99423.66;111505;1253;23569;-67
2024/04/20 06:38:55;;;;;;;12.50;11.50;;;;;;;10.65;64.82;99427.06;111283;1252;21948;-68
2024/04/20 06:41:24;;;;;;;14.30;13.10;;;;;;;10.72;64.28;99432.99;111549;1253;23049;-70
2024/04/20 06:43:57;;;;;;;14.00;12.90;;;;;;;10.82;63.94;99434.91;111507;1245;21964;-68
2024/04/20 06:46:29;;;;;;;15.20;13.00;;;;;;;10.86;63.77;99433.30;111537;1252;21973;-68
2024/04/20 06:48:58;;;;;;;12.40;11.20;;;;;;;10.86;63.49;99441.92;111411;1252;21942;-67
2024/04/20 06:51:28;;;;;;;12.50;11.50;;;;;;;10.80;63.03;99446.36;111509;1252;22721;-68
2024/04/20 06:53:57;;;;;;;11.50;10.60;;;;;;;10.71;62.89;99447.25;111528;1253;23667;-69
2024/04/20 06:56:26;;;;;;;12.00;10.90;;;;;;;10.61;62.58;99451.64;111493;1253;23073;-67
2024/04/20 06:58:55;;;;;;;11.00;10.20;;;;;;;10.47;62.82;99449.84;111509;1239;23009;-68
2024/04/20 07:01:24;;;;;;;12.60;11.60;;;;;;;10.37;63.42;99456.52;111526;1252;21951;-68
2024/04/20 07:03:53;;;;;;;11.80;10.90;;;;;;;10.31;63.44;99461.02;111490;1252;21969;-70
2024/04/20 07:06:21;;;;;;;10.70;9.90;;;;;;;10.22;63.28;99465.82;111543;1253;23579;-67
2024/04/20 07:08:50;;;;;;;12.50;11.30;;;;;;;10.11;63.30;99465.50;111503;1252;21952;-68
2024/04/20 07:11:19;;;;;;;13.20;11.90;;;;;;;10.05;63.57;99470.74;111520;1252;22417;-68
2024/04/20 07:13:47;;;;;;;18.40;16.70;;;;;;;9.98;63.65;99474.77;111492;1253;23060;-68
2024/04/20 07:16:16;;;;;;;14.80;13.60;;;;;;;9.93;64.09;99478.56;111528;1252;21962;-67
2024/04/20 07:18:45;;;;;;;12.30;11.40;;;;;;;9.92;64.29;99482.80;111497;1252;22441;-68
2024/04/20 07:21:14;;;;;;;12.20;11.20;;;;;;;9.92;64.11;99486.70;111500;1253;21956;-68
2024/04/20 07:23:43;;;;;;;13.60;12.40;;;;;;;9.91;64.28;99490.81;111512;1252;21949;-68
2024/04/20 07:26:12;;;;;;;14.20;12.90;;;;;;;9.92;64.43;99496.43;111528;1252;21958;-69
2024/04/20 07:28:41;;;;;;;13.60;12.60;;;;;;;9.93;64.63;99499.99;111234;1252;22943;-71
2024/04/20 07:31:09;;;;;;;13.90;12.60;;;;;;;9.97;64.45;99504.92;111481;1252;21955;-68
2024/04/20 07:33:38;;;;;;;13.30;12.20;;;;;;;10.01;64.38;99507.25;111496;1252;21946;-68
2024/04/20 07:36:07;;;;;;;13.40;11.60;;;;;;;10.03;64.43;99509.06;111477;1253;22473;-70
2024/04/20 07:38:36;;;;;;;12.60;11.20;;;;;;;10.04;64.27;99512.70;111481;1252;23617;-69
2024/04/20 07:41:05;;;;;;;14.60;12.50;;;;;;;10.02;63.80;99516.19;111518;1253;22415;-69
2024/04/20 07:43:33;;;;;;;13.90;12.70;;;;;;;9.98;63.84;99519.48;111491;1252;21950;-68
2024/04/20 07:46:02;;;;;;;13.50;12.10;;;;;;;9.95;63.74;99523.42;111451;1252;23743;-69
2024/04/20 07:48:33;;;;;;;16.10;14.70;;;;;;;9.95;63.94;99525.89;111512;1252;24303;-70
2024/04/20 07:51:05;;;;;;;22.70;19.00;;;;;;;9.94;63.90;99530.66;111217;1252;22085;-69
2024/04/20 07:53:33;;;;;;;;;;;;;;;9.94;63.92;99535.24;111291;1252;21922;-68
2024/04/20 07:56:02;;;;;;;13.00;12.00;;;;;;;9.85;64.29;99537.56;111517;1252;21958;-67
2024/04/20 07:58:31;;;;;;;15.30;13.70;;;;;;;9.88;64.48;99541.38;111322;1252;21965;-68
2024/04/20 08:01:00;;;;;;;15.30;14.00;;;;;;;9.90;64.49;99544.41;111477;1252;22017;-68
2024/04/20 08:03:29;;;;;;;16.50;15.20;;;;;;;9.88;64.46;99548.56;111250;1252;24320;-69
2024/04/20 08:05:58;;;;;;;20.70;19.00;;;;;;;9.88;64.86;99550.52;111278;1252;21952;-68
2024/04/20 08:08:30;;;;;;;21.70;19.90;;;;;;;9.88;65.14;99552.64;111308;1252;22417;-68
2024/04/20 08:10:59;;;;;;;15.60;14.30;;;;;;;9.86;65.07;99560.89;111227;1252;24093;-68
2024/04/20 08:13:29;;;;;;;14.30;13.00;;;;;;;9.82;64.87;99563.31;111575;1252;21956;-68
2024/04/20 08:15:58;;;;;;;17.20;15.80;;;;;;;9.76;64.95;99564.32;111218;1252;23464;-68
2024/04/20 08:18:27;;;;;;;18.40;16.70;;;;;;;9.71;65.17;99567.00;111275;1252;21955;-68
2024/04/20 08:20:56;;;;;;;16.40;15.00;;;;;;;9.70;65.43;99569.04;111570;1252;21955;-67
2024/04/20 08:23:25;;;;;;;16.10;14.60;;;;;;;9.71;65.71;99575.27;111228;1252;23624;-67
2024/04/20 08:25:54;;;;;;;17.00;15.70;;;;;;;9.75;66.29;99583.23;111405;1252;21961;-66
2024/04/20 08:28:26;;;;;;;15.50;14.20;;;;;;;9.79;66.18;99586.39;111293;1252;21949;-66
2024/04/20 08:30:55;;;;;;;16.50;15.10;;;;;;;9.80;66.28;99593.16;111323;1252;21970;-67
2024/04/20 08:33:24;;;;;;;17.90;16.30;;;;;;;9.81;66.59;99598.41;111300;1252;23667;-67
2024/04/20 08:35:53;;;;;;;28.80;25.90;;;;;;;9.80;66.22;99602.70;111296;1252;21984;-67
2024/04/20 08:38:22;;;;;;;19.50;17.70;;;;;;;9.76;66.02;99604.59;111263;1252;21943;-67
2024/04/20 08:40:59;;;;;;;19.00;17.40;;;;;;;9.73;66.04;99607.13;111309;1252;23464;-66
2024/04/20 08:43:28;;;;;;;19.70;17.70;;;;;;;9.69;66.27;99611.27;111025;1252;21974;-67
2024/04/20 08:46:03;;;;;;;16.20;14.80;;;;;;;9.72;66.01;99613.84;111294;1252;21962;-67
2024/04/20 08:48:33;;;;;;;14.30;12.90;;;;;;;9.74;65.21;99616.14;111026;1252;22556;-68
2024/04/20 08:51:06;;;;;;;14.50;13.10;;;;;;;9.70;64.55;99621.59;111296;1252;21956;-67
2024/04/20 08:53:39;;;;;;;14.10;11.40;;;;;;;9.64;64.23;99627.48;111014;1252;21953;-68
2024/04/20 08:56:08;;;;;;;10.00;9.10;;;;;;;9.61;63.84;99631.81;111029;1252;21954;-68
2024/04/20 08:58:37;;;;;;;11.20;10.00;;;;;;;9.54;63.40;99631.83;111318;1252;22924;-68
2024/04/20 09:01:12;;;;;;;9.60;8.70;;;;;;;9.48;63.43;99636.25;111578;1252;21941;-66
2024/04/20 09:03:42;;;;;;;8.40;7.70;;;;;;;9.46;63.35;99643.65;111207;1252;21979;-68
2024/04/20 09:06:11;;;;;;;8.20;7.50;;;;;;;9.45;63.24;99650.73;111280;1252;23216;-67
2024/04/20 09:08:43;;;;;;;7.60;6.90;;;;;;;9.49;63.28;99654.84;111069;1252;21952;-67
2024/04/20 09:11:13;;;;;;;7.90;6.70;;;;;;;9.56;63.06;99654.64;111318;1252;22046;-67
2024/04/20 09:13:42;;;;;;;8.10;7.40;;;;;;;9.63;63.02;99659.20;111298;1252;21955;-67
2024/04/20 09:16:11;;;;;;;9.60;8.00;;;;;;;9.69;63.13;99662.61;111317;1252;21957;-67
2024/04/20 09:18:41;;;;;;;6.10;4.90;;;;;;;9.75;62.77;99663.53;111031;1251;23582;-66
2024/04/20 09:21:10;;;;;;;5.10;3.40;;;;;;;9.81;61.74;99668.70;111273;1252;21950;-69
2024/04/20 09:23:38;;;;;;;5.40;4.80;;;;;;;9.86;61.06;99674.33;111229;1252;23583;-68
2024/04/20 09:26:07;;;;;;;5.60;4.20;;;;;;;9.92;60.72;99673.63;111255;1252;21959;-69
2024/04/20 09:28:38;;;;;;;4.80;4.20;;;;;;;10.02;60.34;99678.88;111199;1252;22945;-68
2024/04/20 09:31:06;;;;;;;6.30;4.50;;;;;;;10.14;60.12;99681.23;111450;1252;21958;-67
2024/04/20 09:33:36;;;;;;;8.00;5.30;;;;;;;10.27;59.88;99680.58;111139;1252;21991;-69
2024/04/20 09:36:06;;;;;;;4.40;4.00;;;;;;;10.42;59.83;99683.23;111246;1252;21990;-68
2024/04/20 09:38:34;;;;;;;4.60;4.20;;;;;;;10.58;59.48;99687.09;111261;1252;22717;-68
2024/04/20 09:41:06;;;;;;;5.70;4.60;;;;;;;10.70;58.69;99689.30;111451;1252;23580;-67
2024/04/20 09:43:38;;;;;;;4.90;4.50;;;;;;;10.79;58.34;99693.67;111315;1252;22276;-68
2024/04/20 09:46:07;;;;;;;4.90;4.40;;;;;;;10.86;57.69;99700.88;111322;1252;22268;-68
2024/04/20 09:48:38;;;;;;;4.60;4.20;;;;;;;10.87;57.27;99701.61;111430;1252;21953;-66
2024/04/20 09:51:22;;;;;;;5.40;4.90;;;;;;;10.90;56.63;99698.90;111257;1252;21950;-68
2024/04/20 09:53:56;;;;;;;7.20;5.60;;;;;;;10.86;56.65;99703.67;111249;1252;22056;-67
2024/04/20 09:56:26;;;;;;;6.10;5.50;;;;;;;10.82;56.64;99706.41;110969;1252;23570;-67
2024/04/20 09:58:58;;;;;;;6.60;6.10;;;;;;;10.77;56.43;99708.59;111385;1252;21963;-68
2024/04/20 10:01:28;;;;;;;7.40;5.90;;;;;;;10.66;56.93;99709.55;111311;1252;22536;-67
2024/04/20 10:03:58;;;;;;;9.10;8.20;;;;;;;10.50;57.82;99715.91;111328;1252;23582;-67
2024/04/20 10:06:28;;;;;;;9.00;8.10;;;;;;;10.26;58.66;99727.66;111011;1252;22009;-67
2024/04/20 10:08:58;;;;;;;8.00;7.20;;;;;;;9.97;59.75;99734.33;111351;1252;23056;-66
2024/04/20 10:11:28;;;;;;;8.20;7.40;;;;;;;9.74;60.45;99739.94;111214;1252;21960;-67
2024/04/20 10:13:58;;;;;;;8.10;7.40;;;;;;;9.54;60.97;99744.80;110923;1252;21965;-66
2024/04/20 10:16:27;;;;;;;9.50;8.50;;;;;;;9.35;61.44;99749.89;111336;1252;21958;-67
2024/04/20 10:18:57;;;;;;;8.30;7.50;;;;;;;9.14;61.90;99756.77;111331;1252;21958;-69
2024/04/20 10:21:26;;;;;;;8.90;7.90;;;;;;;8.96;62.57;99761.18;111324;1252;21985;-69
2024/04/20 10:23:58;;;;;;;10.20;8.60;;;;;;;8.81;62.76;99765.10;111018;1252;21965;-69
2024/04/20 10:26:29;;;;;;;10.20;9.20;;;;;;;8.63;62.94;99767.66;111505;1252;23013;-66
2024/04/20 10:29:10;;;;;;;11.70;10.50;;;;;;;8.50;63.70;99770.64;111276;1252;22022;-68
2024/04/20 10:31:39;;;;;;;12.10;10.30;;;;;;;8.40;64.11;99776.39;111571;1252;22008;-67
2024/04/20 10:34:09;;;;;;;9.60;8.60;;;;;;;8.32;64.45;99778.92;110950;1252;21961;-69
2024/04/20 10:36:38;;;;;;;10.20;7.90;;;;;;;8.21;64.44;99786.85;111325;1252;21955;-67
2024/04/20 10:39:09;;;;;;;8.60;7.80;;;;;;;8.12;64.75;99794.00;111192;1252;23601;-67
2024/04/20 10:41:39;;;;;;;9.00;8.10;;;;;;;8.04;64.86;99798.58;111353;1252;21987;-68
2024/04/20 10:44:15;;;;;;;10.60;8.80;;;;;;;7.95;64.98;99804.05;111060;1252;23028;-68
2024/04/20 10:46:53;;;;;;;8.20;7.40;;;;;;;7.87;64.99;99807.79;111506;1252;21943;-67
2024/04/20 10:49:22;;;;;;;9.30;7.30;;;;;;;7.85;65.09;99811.40;111590;1252;21965;-66
2024/04/20 10:51:56;;;;;;;11.50;9.70;;;;;;;7.86;64.90;99817.30;111283;1252;21951;-67
2024/04/20 10:54:25;;;;;;;9.10;7.90;;;;;;;7.83;64.98;99819.95;111536;1252;21942;-68
2024/04/20 10:56:55;;;;;;;10.10;9.10;;;;;;;7.81;65.15;99820.63;111313;1252;21977;-67
2024/04/20 10:59:24;;;;;;;10.50;9.40;;;;;;;7.82;65.25;99826.88;111278;1252;21953;-67
2024/04/20 11:01:53;;;;;;;12.20;10.30;;;;;;;7.85;65.36;99833.46;111249;1252;21962;-67
2024/04/20 11:04:29;;;;;;;11.80;10.70;;;;;;;7.88;65.49;99836.45;111184;1246;22802;-67
2024/04/20 11:07:03;;;;;;;11.90;10.80;;;;;;;7.89;65.34;99842.50;111275;1252;21994;-67
2024/04/20 11:09:33;;;;;;;9.40;8.00;;;;;;;7.91;65.16;99846.95;111191;1252;21950;-67
2024/04/20 11:12:04;;;;;;;6.40;5.60;;;;;;;7.96;64.75;99850.83;111169;1252;22029;-67
2024/04/20 11:14:33;;;;;;;7.70;7.00;;;;;;;7.97;64.06;99853.73;111020;1241;22945;-67
2024/04/20 11:17:03;;;;;;;8.50;7.30;;;;;;;7.94;63.79;99859.16;111288;1252;22043;-66
2024/04/20 11:19:36;;;;;;;10.60;9.60;;;;;;;7.92;63.90;99865.77;111221;1252;22596;-67
2024/04/20 11:22:08;;;;;;;12.00;10.30;;;;;;;7.87;64.00;99869.46;111363;1252;22432;-67
2024/04/20 11:24:38;;;;;;;10.30;8.80;;;;;;;7.82;64.31;99875.22;111546;1252;22939;-68
2024/04/20 11:27:13;;;;;;;10.30;9.20;;;;;;;7.87;64.20;99880.36;111067;1252;23589;-67
2024/04/20 11:29:43;;;;;;;11.50;9.70;;;;;;;7.99;64.35;99882.20;111226;1252;23676;-69
2024/04/20 11:32:22;;;;;;;9.00;8.10;;;;;;;8.17;64.18;99884.83;111503;1249;21952;-67
2024/04/20 11:34:53;;;;;;;11.70;10.20;;;;;;;8.33;63.31;99890.04;111562;1252;22003;-67